createdAt,value
2018-09-20T00:00:48.277Z,15.90
2018-09-20T00:03:17.193Z,15.90
2018-09-20T00:05:46.044Z,15.90
2018-09-20T00:08:14.987Z,15.80
2018-09-20T00:10:43.841Z,15.80
2018-09-20T00:13:12.758Z,15.80
2018-09-20T00:15:41.677Z,15.80
2018-09-20T00:18:10.572Z,15.80
2018-09-20T00:20:39.427Z,15.80
2018-09-20T00:23:08.280Z,15.80
2018-09-20T00:25:37.168Z,15.80
2018-09-20T00:28:06.089Z,15.80
2018-09-20T00:30:34.956Z,15.90
2018-09-20T00:33:03.856Z,15.90
2018-09-20T00:35:32.752Z,15.90
2018-09-20T00:38:01.637Z,15.90
2018-09-20T00:40:30.532Z,15.80
2018-09-20T00:42:59.408Z,15.80
2018-09-20T00:45:28.336Z,15.80
2018-09-20T00:47:57.176Z,15.70
2018-09-20T00:50:26.008Z,15.70
2018-09-20T00:52:54.925Z,15.70
2018-09-20T00:55:23.789Z,15.70
2018-09-20T00:57:52.720Z,15.70
2018-09-20T01:00:21.609Z,15.70
2018-09-20T01:02:50.512Z,15.70
2018-09-20T01:05:19.368Z,15.70
2018-09-20T01:07:48.269Z,15.60
2018-09-20T01:10:17.237Z,15.60
2018-09-20T01:12:46.081Z,15.60
2018-09-20T01:15:14.987Z,15.60
2018-09-20T01:17:43.869Z,15.50
2018-09-20T01:20:12.767Z,15.50
2018-09-20T01:22:41.721Z,15.40
2018-09-20T01:25:10.565Z,15.40
2018-09-20T01:27:40.120Z,15.40
2018-09-20T01:30:09.037Z,15.40
2018-09-20T01:32:37.948Z,15.40
2018-09-20T01:35:06.849Z,15.40
2018-09-20T01:37:35.764Z,15.30
2018-09-20T01:40:04.679Z,15.30
2018-09-20T01:42:33.729Z,15.20
2018-09-20T01:45:02.592Z,15.10
2018-09-20T01:47:31.524Z,15.20
2018-09-20T01:50:00.414Z,15.20
2018-09-20T01:52:29.301Z,15.20
2018-09-20T01:54:58.198Z,15.20
2018-09-20T01:57:27.077Z,15.20
2018-09-20T01:59:55.925Z,15.20
2018-09-20T02:02:24.833Z,15.20
2018-09-20T02:04:53.960Z,15.20
2018-09-20T02:07:22.873Z,15.20
2018-09-20T02:09:51.708Z,15.20
2018-09-20T02:12:20.736Z,15.20
2018-09-20T02:14:49.572Z,15.20
2018-09-20T02:17:18.448Z,15.20
2018-09-20T02:19:47.396Z,15.20
2018-09-20T02:22:16.292Z,15.10
2018-09-20T02:24:45.144Z,15.10
2018-09-20T02:27:14.068Z,15.10
2018-09-20T02:29:43.072Z,15.00
2018-09-20T02:32:11.935Z,15.00
2018-09-20T02:34:40.817Z,15.00
2018-09-20T02:37:09.692Z,14.90
2018-09-20T02:39:38.609Z,14.90
2018-09-20T02:42:07.668Z,14.90
2018-09-20T02:44:36.548Z,14.80
2018-09-20T02:47:05.512Z,14.80
2018-09-20T02:49:34.418Z,14.80
2018-09-20T02:52:03.270Z,14.70
2018-09-20T02:54:32.288Z,14.70
2018-09-20T02:57:01.145Z,14.70
2018-09-20T02:59:30.056Z,14.70
2018-09-20T03:01:59.009Z,14.60
2018-09-20T03:04:27.910Z,14.60
2018-09-20T03:06:56.792Z,14.60
2018-09-20T03:09:26.084Z,14.60
2018-09-20T03:11:54.957Z,14.60
2018-09-20T03:14:23.829Z,14.60
2018-09-20T03:16:52.701Z,14.60
2018-09-20T03:19:21.582Z,14.60
2018-09-20T03:21:50.572Z,14.60
2018-09-20T03:24:19.448Z,14.60
2018-09-20T03:26:48.372Z,14.50
2018-09-20T03:29:17.323Z,14.50
2018-09-20T03:31:46.189Z,14.50
2018-09-20T03:34:15.089Z,14.50
2018-09-20T03:36:43.954Z,14.50
2018-09-20T03:39:13.045Z,14.50
2018-09-20T03:41:42.107Z,14.50
2018-09-20T03:44:10.971Z,14.50
2018-09-20T03:46:39.876Z,14.40
2018-09-20T03:49:08.756Z,14.40
2018-09-20T03:51:37.627Z,14.40
2018-09-20T03:54:06.625Z,14.40
2018-09-20T03:56:35.489Z,14.30
2018-09-20T03:59:04.449Z,14.30
2018-09-20T04:01:33.325Z,14.30
2018-09-20T04:04:02.272Z,14.20
2018-09-20T04:06:31.108Z,14.30
2018-09-20T04:09:00.017Z,14.30
2018-09-20T04:11:28.873Z,14.30
2018-09-20T04:13:57.745Z,14.20
2018-09-20T04:16:26.589Z,14.20
2018-09-20T04:18:55.473Z,14.20
2018-09-20T04:21:29.981Z,14.20
2018-09-20T04:23:59.403Z,14.20
2018-09-20T04:26:28.697Z,14.20
2018-09-20T04:28:58.169Z,14.20
2018-09-20T04:31:27.714Z,14.20
2018-09-20T04:33:57.358Z,14.20
2018-09-20T04:36:26.517Z,14.10
2018-09-20T04:38:55.536Z,14.10
2018-09-20T04:41:24.456Z,14.10
2018-09-20T04:43:53.333Z,14.10
2018-09-20T04:46:22.312Z,14.10
2018-09-20T04:48:51.221Z,14.10
2018-09-20T04:51:20.829Z,14.10
2018-09-20T04:53:49.936Z,14.00
2018-09-20T04:56:18.877Z,14.30
2018-09-20T04:58:47.797Z,14.90
2018-09-20T05:01:16.648Z,15.90
2018-09-20T05:03:46.316Z,16.80
2018-09-20T05:06:15.273Z,17.70
2018-09-20T05:08:44.284Z,18.30
2018-09-20T05:11:13.200Z,18.70
2018-09-20T05:13:42.057Z,18.70
2018-09-20T05:16:11.044Z,18.60
2018-09-20T05:18:40.013Z,18.40
2018-09-20T05:21:09.044Z,18.30
2018-09-20T05:23:37.900Z,18.40
2018-09-20T05:26:07.023Z,18.40
2018-09-20T05:28:35.932Z,18.40
2018-09-20T05:31:05.491Z,18.50
2018-09-20T05:33:34.456Z,18.10
2018-09-20T05:36:03.329Z,17.70
2018-09-20T05:38:32.668Z,17.80
2018-09-20T05:41:01.680Z,17.60
2018-09-20T05:43:31.334Z,17.20
2018-09-20T05:46:00.162Z,16.80
2018-09-20T05:48:29.057Z,16.50
2018-09-20T05:50:58.057Z,17.00
2018-09-20T05:53:26.955Z,17.80
2018-09-20T05:55:55.884Z,18.30
2018-09-20T05:58:24.788Z,18.60
2018-09-20T06:00:53.704Z,18.60
2018-09-20T06:03:22.572Z,18.20
2018-09-20T06:05:51.610Z,17.80
2018-09-20T06:08:20.465Z,17.40
2018-09-20T06:10:49.593Z,17.10
2018-09-20T06:13:18.722Z,16.90
2018-09-20T06:15:47.749Z,16.70
2018-09-20T06:18:16.633Z,16.40
2018-09-20T06:20:45.545Z,16.30
2018-09-20T06:23:14.485Z,16.30
2018-09-20T06:25:43.388Z,16.30
2018-09-20T06:28:12.277Z,16.20
2018-09-20T06:30:41.863Z,16.30
2018-09-20T06:33:10.772Z,16.30
2018-09-20T06:35:39.792Z,16.40
2018-09-20T06:38:08.733Z,16.50
2018-09-20T06:40:37.646Z,16.50
2018-09-20T06:43:06.662Z,16.60
2018-09-20T06:45:35.541Z,16.70
2018-09-20T06:48:04.549Z,16.80
2018-09-20T06:50:33.574Z,16.80
2018-09-20T06:53:02.497Z,16.90
2018-09-20T06:55:31.405Z,16.90
2018-09-20T06:58:00.372Z,17.00
2018-09-20T07:00:29.250Z,17.10
2018-09-20T07:02:58.185Z,17.20
2018-09-20T07:05:27.115Z,17.30
2018-09-20T07:07:56.037Z,17.40
2018-09-20T07:10:24.974Z,17.50
2018-09-20T07:12:53.809Z,17.60
2018-09-20T07:15:22.704Z,17.70
2018-09-20T07:17:51.744Z,17.80
2018-09-20T07:20:20.632Z,17.90
2018-09-20T07:22:49.551Z,18.00
2018-09-20T07:25:18.581Z,18.10
2018-09-20T07:27:47.424Z,18.20
2018-09-20T07:30:16.381Z,18.30
2018-09-20T07:32:45.270Z,18.40
2018-09-20T07:35:14.193Z,18.40
2018-09-20T07:37:43.093Z,18.50
2018-09-20T07:40:11.981Z,18.60
2018-09-20T07:42:40.904Z,18.80
2018-09-20T07:45:09.832Z,18.90
2018-09-20T07:47:38.748Z,19.00
2018-09-20T07:50:07.770Z,19.10
2018-09-20T07:52:36.673Z,19.20
2018-09-20T07:55:05.662Z,19.30
2018-09-20T07:57:34.550Z,19.40
2018-09-20T08:00:03.764Z,19.50
2018-09-20T08:02:32.661Z,19.60
2018-09-20T08:05:01.556Z,19.70
2018-09-20T08:07:30.756Z,19.80
2018-09-20T08:09:59.680Z,19.90
2018-09-20T08:12:28.608Z,20.00
2018-09-20T08:14:57.569Z,20.10
2018-09-20T08:17:26.433Z,20.20
2018-09-20T08:19:55.593Z,20.30
2018-09-20T08:22:24.497Z,20.40
2018-09-20T08:24:53.362Z,20.50
2018-09-20T08:27:22.283Z,20.70
2018-09-20T08:29:51.456Z,20.80
2018-09-20T08:32:20.417Z,20.90
2018-09-20T08:34:49.312Z,21.10
2018-09-20T08:37:18.445Z,21.20
2018-09-20T08:39:47.171Z,21.30
2018-09-20T08:42:16.109Z,21.40
2018-09-20T08:44:45.030Z,21.50
2018-09-20T08:47:13.992Z,21.60
2018-09-20T08:49:42.974Z,21.80
2018-09-20T08:52:11.851Z,22.00
2018-09-20T08:54:40.737Z,22.10
2018-09-20T08:57:09.709Z,22.30
2018-09-20T08:59:38.621Z,22.40
2018-09-20T09:02:08.771Z,22.60
2018-09-20T09:04:37.712Z,22.70
2018-09-20T09:07:07.749Z,22.80
2018-09-20T09:09:37.959Z,22.80
2018-09-20T09:12:07.445Z,22.90
2018-09-20T09:14:36.348Z,23.10
2018-09-20T09:17:07.624Z,23.20
2018-09-20T09:19:36.940Z,23.30
2018-09-20T09:22:07.368Z,23.40
2018-09-20T09:24:36.246Z,23.50
2018-09-20T09:27:07.459Z,23.70
2018-09-20T09:29:36.471Z,23.80
2018-09-20T09:32:07.756Z,24.00
2018-09-20T09:34:36.656Z,24.20
2018-09-20T09:37:07.649Z,24.30
2018-09-20T09:39:36.696Z,24.40
2018-09-20T09:42:07.778Z,24.50
2018-09-20T09:44:36.608Z,24.70
2018-09-20T09:47:07.863Z,24.90
2018-09-20T09:49:36.756Z,25.00
2018-09-20T09:52:08.648Z,25.20
2018-09-20T09:54:37.919Z,25.30
2018-09-20T09:57:08.072Z,25.40
2018-09-20T09:59:37.035Z,25.60
2018-09-20T10:02:06.025Z,25.70
2018-09-20T10:04:34.849Z,25.80
2018-09-20T10:07:03.805Z,26.00
2018-09-20T10:09:32.680Z,26.20
2018-09-20T10:12:01.540Z,26.30
2018-09-20T10:14:30.420Z,26.40
2018-09-20T10:16:59.285Z,26.60
2018-09-20T10:19:28.245Z,26.80
2018-09-20T10:21:57.152Z,26.90
2018-09-20T10:24:26.076Z,27.00
2018-09-20T10:26:54.997Z,27.00
2018-09-20T10:29:23.913Z,27.20
2018-09-20T10:31:52.787Z,27.30
2018-09-20T10:34:21.726Z,27.60
2018-09-20T10:36:50.589Z,27.80
2018-09-20T10:39:19.533Z,28.00
2018-09-20T10:41:48.445Z,28.10
2018-09-20T10:44:17.296Z,28.20
2018-09-20T10:46:47.292Z,28.30
2018-09-20T10:49:16.205Z,28.50
2018-09-20T10:51:45.177Z,28.70
2018-09-20T10:54:14.243Z,28.80
2018-09-20T10:56:43.117Z,28.80
2018-09-20T10:59:12.101Z,28.80
2018-09-20T11:01:41.065Z,28.90
2018-09-20T11:04:10.153Z,29.00
2018-09-20T11:06:39.154Z,29.00
2018-09-20T11:09:09.456Z,29.20
2018-09-20T11:11:38.427Z,29.40
2018-09-20T11:14:07.342Z,29.60
2018-09-20T11:16:36.915Z,29.70
2018-09-20T11:19:05.869Z,29.80
2018-09-20T11:21:34.956Z,29.90
2018-09-20T11:24:03.913Z,30.00
2018-09-20T11:26:33.000Z,30.20
2018-09-20T11:29:01.916Z,30.30
2018-09-20T11:31:30.872Z,30.40
2018-09-20T11:33:59.753Z,30.60
2018-09-20T11:36:28.688Z,30.80
2018-09-20T11:38:57.562Z,30.80
2018-09-20T11:41:26.452Z,30.80
2018-09-20T11:43:55.345Z,30.80
2018-09-20T11:46:24.297Z,30.40
2018-09-20T11:48:53.312Z,30.40
2018-09-20T11:51:22.195Z,30.40
2018-09-20T11:53:51.088Z,30.60
2018-09-20T11:56:20.173Z,30.70
2018-09-20T11:58:49.113Z,30.90
2018-09-20T12:01:18.063Z,31.20
2018-09-20T12:03:46.988Z,31.10
2018-09-20T12:06:15.945Z,31.00
2018-09-20T12:08:44.897Z,30.90
2018-09-20T12:11:13.818Z,31.20
2018-09-20T12:13:42.738Z,30.90
2018-09-20T12:16:11.633Z,31.00
2018-09-20T12:18:40.577Z,31.30
2018-09-20T12:21:09.445Z,31.20
2018-09-20T12:23:38.423Z,31.30
2018-09-20T12:26:07.441Z,31.10
2018-09-20T12:28:36.378Z,31.30
2018-09-20T12:31:05.506Z,31.50
2018-09-20T12:33:34.380Z,31.80
2018-09-20T12:36:03.433Z,31.80
2018-09-20T12:38:32.330Z,31.70
2018-09-20T12:41:01.255Z,31.60
2018-09-20T12:43:30.295Z,31.70
2018-09-20T12:45:59.368Z,31.70
2018-09-20T12:48:28.294Z,31.90
2018-09-20T12:50:57.480Z,32.00
2018-09-20T12:53:26.425Z,32.20
2018-09-20T12:55:55.341Z,32.40
2018-09-20T12:58:55.910Z,32.20
2018-09-20T13:01:24.836Z,32.30
2018-09-20T13:03:53.804Z,32.40
2018-09-20T13:06:23.668Z,32.50
2018-09-20T13:08:52.650Z,32.60
2018-09-20T13:11:21.640Z,32.80
2018-09-20T13:13:50.744Z,33.10
2018-09-20T13:16:21.167Z,33.10
2018-09-20T13:18:50.180Z,33.10
2018-09-20T13:21:19.843Z,32.90
2018-09-20T13:23:49.226Z,33.00
2018-09-20T13:26:18.139Z,33.10
2018-09-20T13:28:47.472Z,33.10
2018-09-20T13:31:16.785Z,33.00
2018-09-20T13:33:49.619Z,32.90
2018-09-20T13:36:19.333Z,33.20
2018-09-20T13:38:48.309Z,33.10
2018-09-20T13:41:17.225Z,33.20
2018-09-20T13:43:46.883Z,33.30
2018-09-20T13:46:16.044Z,33.40
2018-09-20T13:48:45.518Z,33.50
2018-09-20T13:51:14.822Z,33.50
2018-09-20T13:53:44.057Z,33.60
2018-09-20T13:56:13.454Z,33.50
2018-09-20T13:58:46.783Z,33.30
2018-09-20T14:01:15.952Z,33.40
2018-09-20T14:03:45.117Z,33.40
2018-09-20T14:06:14.761Z,33.80
2018-09-20T14:08:43.860Z,34.20
2018-09-20T14:11:13.993Z,34.70
2018-09-20T14:13:43.432Z,35.00
2018-09-20T14:16:13.132Z,35.70
2018-09-20T14:18:42.373Z,36.40
2018-09-20T14:21:12.300Z,36.90
2018-09-20T14:23:41.595Z,37.30
2018-09-20T14:26:10.863Z,38.10
2018-09-20T14:29:11.849Z,38.50
2018-09-20T14:31:41.735Z,38.90
2018-09-20T14:34:11.182Z,39.20
2018-09-20T14:36:40.310Z,39.20
2018-09-20T14:39:11.044Z,39.80
2018-09-20T14:41:40.263Z,40.20
2018-09-20T14:44:09.272Z,40.40
2018-09-20T14:46:38.378Z,41.20
2018-09-20T14:49:07.777Z,41.20
2018-09-20T14:51:37.377Z,41.40
2018-09-20T14:54:06.351Z,41.40
2018-09-20T14:56:35.318Z,41.70
2018-09-20T14:59:04.230Z,41.80
2018-09-20T15:01:33.244Z,41.80
2018-09-20T15:04:02.326Z,41.90
2018-09-20T15:06:31.344Z,41.80
2018-09-20T15:09:00.450Z,41.80
2018-09-20T15:11:30.178Z,41.90
2018-09-20T15:13:59.120Z,41.90
2018-09-20T15:16:27.996Z,41.80
2018-09-20T15:18:56.886Z,41.80
2018-09-20T15:21:25.773Z,41.70
2018-09-20T15:23:54.728Z,41.70
2018-09-20T15:26:23.872Z,41.50
2018-09-20T15:28:53.122Z,41.30
2018-09-20T15:31:22.326Z,41.10
2018-09-20T15:34:01.551Z,41.00
2018-09-20T15:36:30.738Z,40.90
2018-09-20T15:38:59.656Z,40.90
2018-09-20T15:41:28.575Z,40.70
2018-09-20T15:43:57.461Z,40.70
2018-09-20T15:46:26.379Z,40.50
2018-09-20T15:48:55.325Z,39.80
2018-09-20T15:51:24.284Z,39.30
2018-09-20T15:53:53.201Z,39.10
2018-09-20T15:56:22.108Z,38.80
2018-09-20T15:58:51.029Z,38.30
2018-09-20T16:01:20.009Z,36.40
2018-09-20T16:03:48.966Z,33.90
2018-09-20T16:06:17.904Z,32.20
2018-09-20T16:08:46.817Z,30.90
2018-09-20T16:11:15.746Z,30.10
2018-09-20T16:13:44.621Z,29.30
2018-09-20T16:16:13.465Z,28.90
2018-09-20T16:18:42.324Z,28.60
2018-09-20T16:21:11.185Z,28.20
2018-09-20T16:23:40.182Z,27.90
2018-09-20T16:26:08.972Z,27.50
2018-09-20T16:28:59.827Z,27.20
2018-09-20T16:32:57.144Z,26.90
2018-09-20T16:36:01.666Z,26.70
2018-09-20T16:38:42.476Z,26.20
2018-09-20T16:41:13.012Z,25.90
2018-09-20T16:43:41.884Z,25.70
2018-09-20T16:46:10.766Z,25.50
2018-09-20T16:48:39.613Z,25.40
2018-09-20T16:51:08.797Z,25.30
2018-09-20T16:53:37.682Z,25.20
2018-09-20T16:56:09.796Z,25.00
2018-09-20T16:58:45.891Z,24.90
2018-09-20T17:01:24.583Z,24.80
2018-09-20T17:03:55.233Z,24.60
2018-09-20T17:06:25.777Z,24.40
2018-09-20T17:08:58.546Z,24.30
2018-09-20T17:11:28.782Z,24.00
2018-09-20T17:13:58.197Z,23.90
2018-09-20T17:16:34.778Z,23.80
2018-09-20T17:19:11.273Z,23.70
2018-09-20T17:21:41.893Z,23.70
2018-09-20T17:24:15.313Z,23.50
2018-09-20T17:26:53.687Z,23.30
2018-09-20T17:29:35.301Z,23.00
2018-09-20T17:32:17.049Z,22.80
2018-09-20T17:34:53.421Z,22.80
2018-09-20T17:37:33.937Z,22.70
2018-09-20T17:40:06.631Z,22.60
2018-09-20T17:45:18.577Z,22.50
2018-09-20T17:47:49.557Z,22.40
2018-09-20T17:50:19.540Z,22.30
2018-09-20T17:52:50.230Z,22.40
2018-09-20T17:55:20.060Z,22.30
2018-09-20T17:57:50.340Z,22.30
2018-09-20T18:00:22.129Z,22.20
2018-09-20T18:02:51.873Z,22.00
2018-09-20T18:05:22.042Z,22.00
2018-09-20T18:07:53.295Z,21.90
2018-09-20T18:10:23.386Z,21.80
2018-09-20T18:12:53.715Z,21.70
2018-09-20T18:15:23.953Z,21.70
2018-09-20T18:17:54.081Z,21.70
2018-09-20T18:20:23.315Z,21.60
2018-09-20T18:22:52.662Z,21.50
2018-09-20T18:25:23.257Z,21.40
2018-09-20T18:27:52.447Z,21.30
2018-09-20T18:30:27.994Z,21.20
2018-09-20T18:32:57.397Z,21.10
2018-09-20T18:35:27.480Z,21.00
2018-09-20T18:37:56.928Z,20.90
2018-09-20T18:40:26.019Z,20.80
2018-09-20T18:42:59.630Z,20.70
2018-09-20T18:45:30.047Z,20.60
2018-09-20T18:51:11.015Z,20.50
2018-09-20T19:07:40.183Z,20.40
2018-09-20T19:10:24.451Z,20.10
2018-09-20T19:32:35.680Z,19.60
2018-09-20T19:46:13.405Z,19.30
2018-09-20T20:03:50.320Z,18.80
2018-09-20T20:06:19.521Z,18.70
2018-09-20T20:08:49.482Z,18.60
2018-09-20T20:11:19.248Z,18.60
2018-09-20T20:13:48.642Z,18.60
2018-09-20T20:16:17.856Z,18.60
2018-09-20T20:18:47.028Z,18.60
2018-09-20T20:21:16.286Z,18.50
2018-09-20T20:23:45.554Z,18.50
2018-09-20T20:26:14.857Z,18.50
2018-09-20T20:29:19.229Z,18.40
2018-09-20T20:32:09.404Z,18.30
2018-09-20T20:35:34.001Z,18.30
2018-09-20T20:38:44.144Z,18.20
2018-09-20T20:44:33.117Z,18.20
2018-09-20T20:47:13.354Z,18.10
2018-09-20T20:50:00.673Z,18.00
2018-09-20T20:52:38.421Z,18.00
2018-09-20T20:55:42.434Z,18.00
2018-09-20T20:58:37.241Z,17.90
2018-09-20T21:06:22.094Z,17.80
2018-09-20T21:09:03.874Z,17.60
2018-09-20T21:14:34.828Z,17.50
2018-09-20T21:19:52.249Z,17.40
2018-09-20T21:22:30.011Z,17.20
2018-09-20T21:25:02.429Z,17.10
2018-09-20T21:27:38.717Z,17.10
2018-09-20T21:30:13.545Z,17.00
2018-09-20T21:32:42.525Z,17.00
2018-09-20T21:35:11.381Z,17.00
2018-09-20T21:37:40.364Z,17.00
2018-09-20T21:40:09.324Z,17.00
2018-09-20T21:42:38.204Z,17.00
2018-09-20T21:45:07.098Z,17.00
2018-09-20T21:47:35.976Z,17.10
2018-09-20T21:50:05.060Z,17.10
2018-09-20T21:52:33.918Z,17.10
2018-09-20T21:55:02.752Z,17.00
2018-09-20T21:57:31.709Z,17.00
2018-09-20T22:00:00.541Z,17.00
2018-09-20T22:02:34.691Z,17.00
2018-09-20T22:05:03.535Z,17.00
2018-09-20T22:07:32.549Z,17.00
2018-09-20T22:10:01.377Z,16.90
2018-09-20T22:12:30.280Z,16.90
2018-09-20T22:14:59.157Z,16.80
2018-09-20T22:17:28.041Z,16.80
2018-09-20T22:19:57.041Z,16.80
2018-09-20T22:22:25.923Z,16.80
2018-09-20T22:24:54.768Z,16.70
2018-09-20T22:27:23.684Z,16.70
2018-09-20T22:29:52.597Z,16.70
2018-09-20T22:32:21.597Z,16.70
2018-09-20T22:34:50.479Z,16.60
2018-09-20T22:37:19.357Z,16.70
2018-09-20T22:39:49.152Z,16.60
2018-09-20T22:42:18.072Z,16.60
2018-09-20T22:44:47.094Z,16.50
2018-09-20T22:47:15.917Z,16.50
2018-09-20T22:49:44.796Z,16.40
2018-09-20T22:52:13.660Z,16.40
2018-09-20T22:54:42.561Z,16.40
2018-09-20T22:57:11.665Z,16.40
2018-09-20T22:59:40.520Z,16.30
2018-09-20T23:02:09.379Z,16.30
2018-09-20T23:04:38.294Z,16.20
2018-09-20T23:07:07.555Z,16.20
2018-09-20T23:09:36.549Z,16.20
2018-09-20T23:12:05.480Z,16.00
2018-09-20T23:14:34.561Z,16.00
2018-09-20T23:17:03.472Z,15.90
2018-09-20T23:19:32.389Z,16.00
2018-09-20T23:22:01.268Z,16.00
2018-09-20T23:24:30.112Z,16.00
2018-09-20T23:26:59.085Z,16.00
2018-09-20T23:29:27.970Z,16.00
2018-09-20T23:31:56.832Z,16.00
2018-09-20T23:34:25.725Z,16.00
2018-09-20T23:36:54.639Z,16.00
2018-09-20T23:39:23.570Z,16.00
2018-09-20T23:41:52.452Z,16.00
2018-09-20T23:44:21.488Z,15.90
2018-09-20T23:46:50.344Z,15.90
2018-09-20T23:49:19.227Z,15.90
2018-09-20T23:51:48.161Z,15.80
2018-09-20T23:54:17.050Z,15.80
2018-09-20T23:56:46.005Z,15.80
2018-09-20T23:59:14.876Z,15.80
